sensor_id;sensor_type;location;lat;lon;timestamp;pressure;altitude;pressure_sealevel;temperature;humidity
80321;BME280;69633;47.066;15.450;2023-05-10T00:01:52;97554.44;;;10.72;69.29
80321;BME280;69633;47.066;15.450;2023-05-10T00:04:19;97555.78;;;10.78;68.90
80321;BME280;69633;47.066;15.450;2023-05-10T00:06:44;97552.59;;;10.85;68.72
80321;BME280;69633;47.066;15.450;2023-05-10T00:09:11;97551.47;;;10.86;68.83
80321;BME280;69633;47.066;15.450;2023-05-10T00:11:36;97555.34;;;10.88;68.66
80321;BME280;69633;47.066;15.450;2023-05-10T00:14:03;97545.41;;;10.85;68.51
80321;BME280;69633;47.066;15.450;2023-05-10T00:16:30;97544.06;;;10.79;68.34
80321;BME280;69633;47.066;15.450;2023-05-10T00:18:56;97536.19;;;10.71;69.20
80321;BME280;69633;47.066;15.450;2023-05-10T00:21:22;97541.69;;;10.65;68.90
80321;BME280;69633;47.066;15.450;2023-05-10T00:23:48;97542.66;;;10.61;68.85
80321;BME280;69633;47.066;15.450;2023-05-10T00:26:14;97535.72;;;10.56;69.60
80321;BME280;69633;47.066;15.450;2023-05-10T00:28:41;97532.94;;;10.53;69.84
80321;BME280;69633;47.066;15.450;2023-05-10T00:31:07;97527.19;;;10.51;69.52
80321;BME280;69633;47.066;15.450;2023-05-10T00:33:33;97522.97;;;10.50;69.21
80321;BME280;69633;47.066;15.450;2023-05-10T00:35:58;97527.72;;;10.44;69.71
80321;BME280;69633;47.066;15.450;2023-05-10T00:38:24;97530.06;;;10.46;69.65
80321;BME280;69633;47.066;15.450;2023-05-10T00:40:49;97523.19;;;10.45;69.81
80321;BME280;69633;47.066;15.450;2023-05-10T00:43:16;97519.63;;;10.41;70.17
80321;BME280;69633;47.066;15.450;2023-05-10T00:45:43;97525.38;;;10.43;70.39
80321;BME280;69633;47.066;15.450;2023-05-10T00:48:09;97525.13;;;10.36;70.54
80321;BME280;69633;47.066;15.450;2023-05-10T00:50:35;97513.38;;;10.25;70.86
80321;BME280;69633;47.066;15.450;2023-05-10T00:53:02;97513.13;;;10.17;71.34
80321;BME280;69633;47.066;15.450;2023-05-10T00:55:27;97517.06;;;10.11;71.51
80321;BME280;69633;47.066;15.450;2023-05-10T00:57:54;97505.84;;;10.14;72.48
80321;BME280;69633;47.066;15.450;2023-05-10T01:00:22;97508.50;;;10.14;71.62
80321;BME280;69633;47.066;15.450;2023-05-10T01:02:49;97511.06;;;10.23;71.45
80321;BME280;69633;47.066;15.450;2023-05-10T01:05:15;97505.78;;;10.23;71.36
80321;BME280;69633;47.066;15.450;2023-05-10T01:07:42;97505.31;;;10.21;71.39
80321;BME280;69633;47.066;15.450;2023-05-10T01:10:08;97498.00;;;10.18;71.22
80321;BME280;69633;47.066;15.450;2023-05-10T01:12:39;97502.69;;;10.12;71.38
80321;BME280;69633;47.066;15.450;2023-05-10T01:15:07;97503.81;;;10.11;70.87
80321;BME280;69633;47.066;15.450;2023-05-10T01:17:35;97507.84;;;10.17;71.19
80321;BME280;69633;47.066;15.450;2023-05-10T01:20:02;97502.53;;;10.17;71.13
80321;BME280;69633;47.066;15.450;2023-05-10T01:34:27;97495.31;;;9.85;71.01
80321;BME280;69633;47.066;15.450;2023-05-10T01:37:14;97499.34;;;9.83;70.94
80321;BME280;69633;47.066;15.450;2023-05-10T01:40:04;97492.72;;;9.77;71.05
80321;BME280;69633;47.066;15.450;2023-05-10T01:42:40;97488.06;;;9.74;71.40
80321;BME280;69633;47.066;15.450;2023-05-10T01:45:29;97495.16;;;9.61;71.61
80321;BME280;69633;47.066;15.450;2023-05-10T01:48:05;97492.06;;;9.59;71.88
80321;BME280;69633;47.066;15.450;2023-05-10T01:50:34;97498.00;;;9.56;71.48
80321;BME280;69633;47.066;15.450;2023-05-10T01:53:01;97482.75;;;9.53;71.54
80321;BME280;69633;47.066;15.450;2023-05-10T01:55:45;97487.06;;;9.37;72.36
80321;BME280;69633;47.066;15.450;2023-05-10T01:58:19;97486.81;;;9.30;72.54
80321;BME280;69633;47.066;15.450;2023-05-10T02:00:47;97484.16;;;9.30;72.50
80321;BME280;69633;47.066;15.450;2023-05-10T02:03:15;97483.50;;;9.33;72.25
80321;BME280;69633;47.066;15.450;2023-05-10T02:05:45;97488.34;;;9.31;72.63
80321;BME280;69633;47.066;15.450;2023-05-10T02:08:13;97476.22;;;9.30;72.14
80321;BME280;69633;47.066;15.450;2023-05-10T02:10:42;97481.69;;;9.25;72.45
80321;BME280;69633;47.066;15.450;2023-05-10T02:13:09;97478.38;;;9.28;72.11
80321;BME280;69633;47.066;15.450;2023-05-10T02:15:39;97481.59;;;9.12;72.38
80321;BME280;69633;47.066;15.450;2023-05-10T02:18:07;97480.09;;;9.03;72.61
80321;BME280;69633;47.066;15.450;2023-05-10T02:20:36;97475.09;;;9.01;72.72
80321;BME280;69633;47.066;15.450;2023-05-10T02:23:03;97469.38;;;8.99;72.90
80321;BME280;69633;47.066;15.450;2023-05-10T02:25:29;97463.31;;;8.99;73.12
80321;BME280;69633;47.066;15.450;2023-05-10T02:27:57;97467.94;;;9.02;73.29
80321;BME280;69633;47.066;15.450;2023-05-10T02:30:26;97469.66;;;9.06;72.78
80321;BME280;69633;47.066;15.450;2023-05-10T02:32:55;97462.16;;;9.08;72.57
80321;BME280;69633;47.066;15.450;2023-05-10T02:35:22;97467.44;;;9.08;72.62
80321;BME280;69633;47.066;15.450;2023-05-10T02:37:50;97470.69;;;9.14;72.55
80321;BME280;69633;47.066;15.450;2023-05-10T02:40:16;97466.03;;;9.11;72.23
80321;BME280;69633;47.066;15.450;2023-05-10T02:42:45;97464.53;;;9.01;72.44
80321;BME280;69633;47.066;15.450;2023-05-10T02:45:17;97457.53;;;8.97;72.83
80321;BME280;69633;47.066;15.450;2023-05-10T02:47:44;97465.69;;;8.92;72.91
80321;BME280;69633;47.066;15.450;2023-05-10T02:50:10;97468.78;;;8.85;73.13
80321;BME280;69633;47.066;15.450;2023-05-10T02:52:47;97467.44;;;8.79;73.05
80321;BME280;69633;47.066;15.450;2023-05-10T02:55:16;97467.75;;;8.78;73.11
80321;BME280;69633;47.066;15.450;2023-05-10T02:57:51;97467.25;;;8.84;73.14
80321;BME280;69633;47.066;15.450;2023-05-10T03:00:18;97474.22;;;8.89;72.94
80321;BME280;69633;47.066;15.450;2023-05-10T03:02:44;97472.84;;;8.91;72.81
80321;BME280;69633;47.066;15.450;2023-05-10T03:05:10;97469.69;;;8.98;72.96
80321;BME280;69633;47.066;15.450;2023-05-10T03:07:36;97465.47;;;8.97;72.20
80321;BME280;69633;47.066;15.450;2023-05-10T03:10:02;97464.91;;;8.91;72.30
80321;BME280;69633;47.066;15.450;2023-05-10T03:15:45;97465.34;;;8.93;72.26
80321;BME280;69633;47.066;15.450;2023-05-10T03:18:18;97465.19;;;8.90;72.20
80321;BME280;69633;47.066;15.450;2023-05-10T03:20:48;97474.22;;;8.89;72.49
80321;BME280;69633;47.066;15.450;2023-05-10T03:25:44;97470.19;;;8.91;72.44
80321;BME280;69633;47.066;15.450;2023-05-10T03:28:12;97473.28;;;8.93;72.48
80321;BME280;69633;47.066;15.450;2023-05-10T03:30:41;97458.22;;;8.85;72.45
80321;BME280;69633;47.066;15.450;2023-05-10T03:33:07;97466.94;;;8.86;72.92
80321;BME280;69633;47.066;15.450;2023-05-10T03:35:33;97461.78;;;8.89;72.44
80321;BME280;69633;47.066;15.450;2023-05-10T03:37:59;97464.56;;;8.93;72.49
80321;BME280;69633;47.066;15.450;2023-05-10T03:40:26;97467.94;;;9.02;72.26
80321;BME280;69633;47.066;15.450;2023-05-10T03:42:54;97479.19;;;8.99;72.10
80321;BME280;69633;47.066;15.450;2023-05-10T03:45:21;97471.81;;;9.04;71.61
80321;BME280;69633;47.066;15.450;2023-05-10T03:47:47;97471.03;;;9.04;71.84
80321;BME280;69633;47.066;15.450;2023-05-10T03:50:13;97472.47;;;9.01;72.12
80321;BME280;69633;47.066;15.450;2023-05-10T03:52:39;97469.25;;;8.96;72.18
80321;BME280;69633;47.066;15.450;2023-05-10T03:55:06;97478.25;;;8.95;72.56
80321;BME280;69633;47.066;15.450;2023-05-10T03:57:31;97471.41;;;8.94;72.12
80321;BME280;69633;47.066;15.450;2023-05-10T03:59:56;97470.91;;;9.00;72.01
80321;BME280;69633;47.066;15.450;2023-05-10T04:02:23;97474.94;;;9.06;71.74
80321;BME280;69633;47.066;15.450;2023-05-10T04:04:50;97474.13;;;9.14;71.67
80321;BME280;69633;47.066;15.450;2023-05-10T04:07:15;97474.75;;;9.11;71.77
80321;BME280;69633;47.066;15.450;2023-05-10T04:09:42;97476.00;;;9.14;71.77
80321;BME280;69633;47.066;15.450;2023-05-10T04:12:07;97476.69;;;9.23;71.86
80321;BME280;69633;47.066;15.450;2023-05-10T04:14:34;97478.56;;;9.22;71.27
80321;BME280;69633;47.066;15.450;2023-05-10T04:17:00;97483.13;;;9.22;71.20
80321;BME280;69633;47.066;15.450;2023-05-10T04:19:31;97481.75;;;9.07;71.07
80321;BME280;69633;47.066;15.450;2023-05-10T04:21:57;97487.56;;;9.01;71.74
80321;BME280;69633;47.066;15.450;2023-05-10T04:24:23;97488.97;;;9.07;71.41
80321;BME280;69633;47.066;15.450;2023-05-10T04:26:48;97494.88;;;9.04;71.51
80321;BME280;69633;47.066;15.450;2023-05-10T04:29:15;97490.84;;;8.98;71.60
80321;BME280;69633;47.066;15.450;2023-05-10T04:31:41;97485.88;;;8.96;71.84
80321;BME280;69633;47.066;15.450;2023-05-10T04:34:07;97498.00;;;8.97;72.25
80321;BME280;69633;47.066;15.450;2023-05-10T04:36:32;97492.69;;;9.06;71.83
80321;BME280;69633;47.066;15.450;2023-05-10T04:39:00;97495.31;;;9.14;71.71
80321;BME280;69633;47.066;15.450;2023-05-10T04:41:26;97499.97;;;9.17;71.89
80321;BME280;69633;47.066;15.450;2023-05-10T04:43:52;97491.88;;;9.14;72.06
80321;BME280;69633;47.066;15.450;2023-05-10T04:46:19;97491.38;;;9.20;72.24
80321;BME280;69633;47.066;15.450;2023-05-10T04:48:45;97488.59;;;9.38;71.54
80321;BME280;69633;47.066;15.450;2023-05-10T04:51:11;97492.72;;;9.56;71.43
80321;BME280;69633;47.066;15.450;2023-05-10T04:53:38;97482.63;;;9.70;71.01
80321;BME280;69633;47.066;15.450;2023-05-10T04:56:04;97493.09;;;9.87;70.42
80321;BME280;69633;47.066;15.450;2023-05-10T04:58:30;97497.09;;;9.93;69.65
80321;BME280;69633;47.066;15.450;2023-05-10T05:01:05;97493.81;;;9.96;70.05
80321;BME280;69633;47.066;15.450;2023-05-10T05:03:31;97497.84;;;9.94;70.02
80321;BME280;69633;47.066;15.450;2023-05-10T05:05:57;97492.25;;;9.95;70.02
80321;BME280;69633;47.066;15.450;2023-05-10T05:08:23;97497.59;;;10.07;69.50
80321;BME280;69633;47.066;15.450;2023-05-10T05:10:49;97505.50;;;10.16;69.55
80321;BME280;69633;47.066;15.450;2023-05-10T05:13:16;97503.44;;;10.22;69.01
80321;BME280;69633;47.066;15.450;2023-05-10T05:15:43;97505.88;;;10.27;69.46
80321;BME280;69633;47.066;15.450;2023-05-10T05:18:09;97494.19;;;10.40;69.07
80321;BME280;69633;47.066;15.450;2023-05-10T05:20:35;97495.63;;;10.37;69.12
80321;BME280;69633;47.066;15.450;2023-05-10T05:23:02;97494.19;;;10.40;69.28
80321;BME280;69633;47.066;15.450;2023-05-10T05:25:27;97497.50;;;10.37;68.91
80321;BME280;69633;47.066;15.450;2023-05-10T05:27:54;97495.50;;;10.34;69.25
80321;BME280;69633;47.066;15.450;2023-05-10T05:30:21;97501.97;;;10.45;68.51
80321;BME280;69633;47.066;15.450;2023-05-10T05:32:47;97505.72;;;10.44;68.28
80321;BME280;69633;47.066;15.450;2023-05-10T05:35:13;97506.84;;;10.55;68.64
80321;BME280;69633;47.066;15.450;2023-05-10T05:37:40;97513.19;;;10.75;68.36
80321;BME280;69633;47.066;15.450;2023-05-10T05:40:05;97518.28;;;10.92;67.71
80321;BME280;69633;47.066;15.450;2023-05-10T05:42:32;97512.22;;;11.03;66.91
80321;BME280;69633;47.066;15.450;2023-05-10T05:44:58;97514.56;;;11.17;65.96
80321;BME280;69633;47.066;15.450;2023-05-10T05:47:24;97514.22;;;11.19;66.12
80321;BME280;69633;47.066;15.450;2023-05-10T05:49:50;97518.63;;;11.14;66.20
80321;BME280;69633;47.066;15.450;2023-05-10T05:52:16;97514.00;;;11.11;66.85
80321;BME280;69633;47.066;15.450;2023-05-10T05:54:42;97519.53;;;11.31;66.40
80321;BME280;69633;47.066;15.450;2023-05-10T05:57:09;97513.53;;;11.46;65.47
80321;BME280;69633;47.066;15.450;2023-05-10T05:59:35;97517.75;;;11.47;66.23
80321;BME280;69633;47.066;15.450;2023-05-10T06:02:01;97516.19;;;11.58;65.50
80321;BME280;69633;47.066;15.450;2023-05-10T06:04:27;97524.47;;;11.69;65.11
80321;BME280;69633;47.066;15.450;2023-05-10T06:06:54;97517.63;;;12.07;64.22
80321;BME280;69633;47.066;15.450;2023-05-10T06:09:19;97516.44;;;12.33;64.41
80321;BME280;69633;47.066;15.450;2023-05-10T06:11:46;97520.41;;;12.54;63.28
80321;BME280;69633;47.066;15.450;2023-05-10T06:14:11;97525.16;;;12.61;63.20
80321;BME280;69633;47.066;15.450;2023-05-10T06:16:38;97531.66;;;12.64;62.61
80321;BME280;69633;47.066;15.450;2023-05-10T06:19:05;97527.94;;;12.80;61.73
80321;BME280;69633;47.066;15.450;2023-05-10T06:21:31;97527.09;;;13.07;62.02
80321;BME280;69633;47.066;15.450;2023-05-10T06:23:56;97532.94;;;13.29;61.25
80321;BME280;69633;47.066;15.450;2023-05-10T06:26:22;97530.59;;;13.43;61.29
80321;BME280;69633;47.066;15.450;2023-05-10T06:28:49;97524.53;;;13.62;60.81
80321;BME280;69633;47.066;15.450;2023-05-10T06:31:16;97528.97;;;13.73;60.00
80321;BME280;69633;47.066;15.450;2023-05-10T06:33:43;97527.03;;;13.89;59.56
80321;BME280;69633;47.066;15.450;2023-05-10T06:36:08;97528.44;;;14.02;58.78
80321;BME280;69633;47.066;15.450;2023-05-10T06:38:34;97523.94;;;14.07;58.37
80321;BME280;69633;47.066;15.450;2023-05-10T06:41:00;97525.78;;;14.22;57.85
80321;BME280;69633;47.066;15.450;2023-05-10T06:43:27;97525.22;;;14.32;57.69
80321;BME280;69633;47.066;15.450;2023-05-10T06:45:54;97516.22;;;14.40;57.95
80321;BME280;69633;47.066;15.450;2023-05-10T06:48:21;97521.94;;;14.58;57.26
80321;BME280;69633;47.066;15.450;2023-05-10T06:50:47;97510.94;;;14.63;56.45
80321;BME280;69633;47.066;15.450;2023-05-10T06:53:13;97515.34;;;14.74;56.39
80321;BME280;69633;47.066;15.450;2023-05-10T06:55:39;97510.88;;;14.82;55.88
80321;BME280;69633;47.066;15.450;2023-05-10T06:58:06;97509.16;;;14.70;55.93
80321;BME280;69633;47.066;15.450;2023-05-10T07:00:33;97509.88;;;14.67;55.95
80321;BME280;69633;47.066;15.450;2023-05-10T07:03:00;97507.03;;;14.79;55.78
80321;BME280;69633;47.066;15.450;2023-05-10T07:05:25;97512.66;;;14.97;55.21
80321;BME280;69633;47.066;15.450;2023-05-10T07:07:54;97497.78;;;15.22;55.34
80321;BME280;69633;47.066;15.450;2023-05-10T07:10:19;97509.69;;;15.25;54.40
80321;BME280;69633;47.066;15.450;2023-05-10T07:12:46;97498.44;;;15.16;54.69
80321;BME280;69633;47.066;15.450;2023-05-10T07:15:12;97500.84;;;15.21;54.28
80321;BME280;69633;47.066;15.450;2023-05-10T07:17:39;97503.22;;;15.26;53.64
80321;BME280;69633;47.066;15.450;2023-05-10T07:20:05;97501.56;;;15.18;53.93
80321;BME280;69633;47.066;15.450;2023-05-10T07:22:32;97503.97;;;15.04;54.09
80321;BME280;69633;47.066;15.450;2023-05-10T07:24:57;97501.00;;;15.09;54.20
80321;BME280;69633;47.066;15.450;2023-05-10T07:27:25;97500.94;;;15.28;54.15
80321;BME280;69633;47.066;15.450;2023-05-10T07:29:50;97506.72;;;15.56;53.55
80321;BME280;69633;47.066;15.450;2023-05-10T07:32:17;97505.63;;;15.61;52.83
80321;BME280;69633;47.066;15.450;2023-05-10T07:34:42;97504.81;;;15.57;53.42
80321;BME280;69633;47.066;15.450;2023-05-10T07:37:08;97500.06;;;15.73;53.32
80321;BME280;69633;47.066;15.450;2023-05-10T07:39:34;97507.78;;;15.78;53.86
80321;BME280;69633;47.066;15.450;2023-05-10T07:42:00;97510.22;;;15.90;52.79
80321;BME280;69633;47.066;15.450;2023-05-10T07:44:26;97507.50;;;15.86;53.14
80321;BME280;69633;47.066;15.450;2023-05-10T07:46:52;97507.75;;;15.74;52.96
80321;BME280;69633;47.066;15.450;2023-05-10T07:49:18;97506.94;;;15.70;53.61
80321;BME280;69633;47.066;15.450;2023-05-10T07:51:44;97503.00;;;15.64;53.34
80321;BME280;69633;47.066;15.450;2023-05-10T07:54:10;97505.47;;;15.76;53.45
80321;BME280;69633;47.066;15.450;2023-05-10T07:56:37;97500.41;;;16.01;52.12
80321;BME280;69633;47.066;15.450;2023-05-10T07:59:03;97505.31;;;16.25;51.78
80321;BME280;69633;47.066;15.450;2023-05-10T08:01:34;97497.75;;;16.68;50.88
80321;BME280;69633;47.066;15.450;2023-05-10T08:04:00;97499.81;;;16.85;49.97
80321;BME280;69633;47.066;15.450;2023-05-10T08:06:28;97492.28;;;17.01;49.84
80321;BME280;69633;47.066;15.450;2023-05-10T08:08:55;97493.81;;;17.02;49.50
80321;BME280;69633;47.066;15.450;2023-05-10T08:11:22;97500.16;;;16.83;49.26
80321;BME280;69633;47.066;15.450;2023-05-10T08:13:50;97502.22;;;17.01;49.36
80321;BME280;69633;47.066;15.450;2023-05-10T08:16:17;97497.31;;;17.10;49.65
80321;BME280;69633;47.066;15.450;2023-05-10T08:18:44;97493.31;;;17.37;49.02
80321;BME280;69633;47.066;15.450;2023-05-10T08:21:11;97504.09;;;17.48;49.08
80321;BME280;69633;47.066;15.450;2023-05-10T08:23:37;97500.00;;;17.61;48.92
80321;BME280;69633;47.066;15.450;2023-05-10T08:26:03;97498.88;;;17.65;48.60
80321;BME280;69633;47.066;15.450;2023-05-10T08:28:29;97496.47;;;17.50;48.08
80321;BME280;69633;47.066;15.450;2023-05-10T08:30:56;97494.25;;;17.62;48.00
80321;BME280;69633;47.066;15.450;2023-05-10T08:33:23;97491.03;;;17.39;48.62
80321;BME280;69633;47.066;15.450;2023-05-10T08:35:48;97498.41;;;17.56;48.45
80321;BME280;69633;47.066;15.450;2023-05-10T08:38:14;97492.75;;;17.68;47.39
80321;BME280;69633;47.066;15.450;2023-05-10T08:40:42;97497.06;;;17.83;46.40
80321;BME280;69633;47.066;15.450;2023-05-10T08:43:09;97500.63;;;18.16;45.10
80321;BME280;69633;47.066;15.450;2023-05-10T08:45:41;97496.19;;;18.62;44.14
80321;BME280;69633;47.066;15.450;2023-05-10T08:48:09;97489.63;;;18.56;43.67
80321;BME280;69633;47.066;15.450;2023-05-10T08:50:40;97491.97;;;18.61;43.40
80321;BME280;69633;47.066;15.450;2023-05-10T08:53:09;97487.34;;;18.51;44.60
80321;BME280;69633;47.066;15.450;2023-05-10T08:55:37;97491.94;;;18.54;44.32
80321;BME280;69633;47.066;15.450;2023-05-10T08:58:04;97491.97;;;18.68;44.14
80321;BME280;69633;47.066;15.450;2023-05-10T09:00:32;97491.53;;;18.52;45.04
80321;BME280;69633;47.066;15.450;2023-05-10T09:02:58;97493.09;;;18.53;44.86
80321;BME280;69633;47.066;15.450;2023-05-10T09:05:25;97480.06;;;18.55;45.07
80321;BME280;69633;47.066;15.450;2023-05-10T09:07:52;97481.63;;;18.99;43.77
80321;BME280;69633;47.066;15.450;2023-05-10T09:10:19;97478.13;;;19.34;42.58
80321;BME280;69633;47.066;15.450;2023-05-10T09:12:48;97477.31;;;19.61;42.17
80321;BME280;69633;47.066;15.450;2023-05-10T09:15:15;97483.88;;;19.50;41.28
80321;BME280;69633;47.066;15.450;2023-05-10T09:17:43;97488.00;;;19.97;40.58
80321;BME280;69633;47.066;15.450;2023-05-10T09:20:09;97483.94;;;19.04;42.21
80321;BME280;69633;47.066;15.450;2023-05-10T09:22:36;97484.66;;;18.65;43.59
80321;BME280;69633;47.066;15.450;2023-05-10T09:25:13;97472.41;;;19.00;43.29
80321;BME280;69633;47.066;15.450;2023-05-10T09:27:41;97482.38;;;19.45;42.29
80321;BME280;69633;47.066;15.450;2023-05-10T09:30:07;97482.28;;;19.77;41.76
80321;BME280;69633;47.066;15.450;2023-05-10T09:35:10;97480.06;;;19.29;42.76
80321;BME280;69633;47.066;15.450;2023-05-10T09:37:41;97478.53;;;18.79;43.24
80321;BME280;69633;47.066;15.450;2023-05-10T09:40:11;97477.41;;;19.15;42.55
80321;BME280;69633;47.066;15.450;2023-05-10T09:42:38;97475.47;;;19.23;42.27
80321;BME280;69633;47.066;15.450;2023-05-10T09:45:04;97474.69;;;18.62;43.10
80321;BME280;69633;47.066;15.450;2023-05-10T09:47:35;97463.94;;;18.69;42.83
80321;BME280;69633;47.066;15.450;2023-05-10T09:50:02;97466.63;;;19.26;41.95
80321;BME280;69633;47.066;15.450;2023-05-10T09:52:31;97465.78;;;19.57;41.00
80321;BME280;69633;47.066;15.450;2023-05-10T09:55:10;97455.47;;;19.03;41.69
80321;BME280;69633;47.066;15.450;2023-05-10T09:57:37;97459.19;;;19.79;42.19
80321;BME280;69633;47.066;15.450;2023-05-10T10:00:04;97457.31;;;20.53;40.83
80321;BME280;69633;47.066;15.450;2023-05-10T10:02:31;97451.25;;;20.90;39.79
80321;BME280;69633;47.066;15.450;2023-05-10T10:04:57;97454.47;;;20.08;41.39
80321;BME280;69633;47.066;15.450;2023-05-10T10:07:24;97456.00;;;20.13;41.03
80321;BME280;69633;47.066;15.450;2023-05-10T10:09:50;97463.56;;;20.39;40.93
80321;BME280;69633;47.066;15.450;2023-05-10T10:12:18;97458.19;;;20.39;40.68
80321;BME280;69633;47.066;15.450;2023-05-10T10:14:48;97449.75;;;20.30;40.52
80321;BME280;69633;47.066;15.450;2023-05-10T10:17:17;97445.47;;;20.36;40.64
80321;BME280;69633;47.066;15.450;2023-05-10T10:19:43;97442.13;;;20.11;39.90
80321;BME280;69633;47.066;15.450;2023-05-10T10:22:09;97453.41;;;19.81;40.39
80321;BME280;69633;47.066;15.450;2023-05-10T10:24:38;97442.25;;;19.86;40.18
80321;BME280;69633;47.066;15.450;2023-05-10T10:27:19;97443.91;;;19.52;40.83
80321;BME280;69633;47.066;15.450;2023-05-10T10:35:37;97435.59;;;20.08;40.61
80321;BME280;69633;47.066;15.450;2023-05-10T10:38:03;97435.06;;;20.38;39.95
80321;BME280;69633;47.066;15.450;2023-05-10T10:40:33;97431.22;;;20.39;40.38
80321;BME280;69633;47.066;15.450;2023-05-10T10:43:25;97428.63;;;20.77;39.09
80321;BME280;69633;47.066;15.450;2023-05-10T10:46:11;97425.44;;;20.89;38.79
80321;BME280;69633;47.066;15.450;2023-05-10T10:49:07;97419.66;;;20.90;39.57
80321;BME280;69633;47.066;15.450;2023-05-10T10:51:37;97420.06;;;20.34;41.13
80321;BME280;69633;47.066;15.450;2023-05-10T10:54:10;97431.28;;;20.21;41.36
80321;BME280;69633;47.066;15.450;2023-05-10T10:56:36;97427.03;;;20.24;41.34
80321;BME280;69633;47.066;15.450;2023-05-10T10:59:03;97429.47;;;20.01;41.98
80321;BME280;69633;47.066;15.450;2023-05-10T11:01:36;97417.31;;;19.61;42.22
80321;BME280;69633;47.066;15.450;2023-05-10T11:04:20;97411.97;;;19.50;42.90
80321;BME280;69633;47.066;15.450;2023-05-10T11:06:46;97419.81;;;20.07;42.20
80321;BME280;69633;47.066;15.450;2023-05-10T11:09:13;97409.09;;;20.62;41.14
80321;BME280;69633;47.066;15.450;2023-05-10T11:11:52;97411.31;;;20.12;42.10
80321;BME280;69633;47.066;15.450;2023-05-10T11:14:23;97418.63;;;20.15;42.12
80321;BME280;69633;47.066;15.450;2023-05-10T11:16:50;97413.38;;;19.90;42.01
80321;BME280;69633;47.066;15.450;2023-05-10T11:19:17;97406.00;;;19.98;42.18
80321;BME280;69633;47.066;15.450;2023-05-10T11:25:00;97410.34;;;19.77;42.60
80321;BME280;69633;47.066;15.450;2023-05-10T11:27:26;97409.78;;;20.11;42.22
80321;BME280;69633;47.066;15.450;2023-05-10T11:29:55;97402.13;;;19.99;42.56
80321;BME280;69633;47.066;15.450;2023-05-10T11:32:22;97402.22;;;19.85;43.03
80321;BME280;69633;47.066;15.450;2023-05-10T11:34:48;97404.59;;;19.72;42.61
80321;BME280;69633;47.066;15.450;2023-05-10T11:37:14;97416.94;;;19.59;43.24
80321;BME280;69633;47.066;15.450;2023-05-10T11:39:45;97406.13;;;19.73;42.73
80321;BME280;69633;47.066;15.450;2023-05-10T11:42:13;97407.75;;;19.49;42.68
80321;BME280;69633;47.066;15.450;2023-05-10T11:44:39;97407.00;;;19.31;43.58
80321;BME280;69633;47.066;15.450;2023-05-10T11:47:06;97410.09;;;19.08;44.08
80321;BME280;69633;47.066;15.450;2023-05-10T11:49:32;97396.97;;;19.35;43.63
80321;BME280;69633;47.066;15.450;2023-05-10T11:52:08;97402.00;;;19.44;43.34
80321;BME280;69633;47.066;15.450;2023-05-10T11:54:36;97405.47;;;19.34;43.79
80321;BME280;69633;47.066;15.450;2023-05-10T11:57:03;97401.94;;;19.54;42.85
80321;BME280;69633;47.066;15.450;2023-05-10T11:59:28;97396.09;;;19.73;42.22
80321;BME280;69633;47.066;15.450;2023-05-10T12:01:55;97394.88;;;19.89;42.44
80321;BME280;69633;47.066;15.450;2023-05-10T12:04:21;97394.78;;;20.06;42.53
80321;BME280;69633;47.066;15.450;2023-05-10T12:06:48;97397.41;;;20.20;42.57
80321;BME280;69633;47.066;15.450;2023-05-10T12:09:14;97399.81;;;20.04;41.59
80321;BME280;69633;47.066;15.450;2023-05-10T12:11:41;97396.16;;;19.66;41.56
80321;BME280;69633;47.066;15.450;2023-05-10T12:14:08;97393.91;;;19.47;42.02
80321;BME280;69633;47.066;15.450;2023-05-10T12:16:35;97403.13;;;19.46;42.81
80321;BME280;69633;47.066;15.450;2023-05-10T12:19:00;97401.22;;;19.43;42.79
80321;BME280;69633;47.066;15.450;2023-05-10T12:21:28;97395.47;;;19.30;42.66
80321;BME280;69633;47.066;15.450;2023-05-10T12:23:58;97395.53;;;18.99;43.26
80321;BME280;69633;47.066;15.450;2023-05-10T12:26:25;97396.28;;;19.06;43.24
80321;BME280;69633;47.066;15.450;2023-05-10T12:28:53;97406.66;;;19.18;43.21
80321;BME280;69633;47.066;15.450;2023-05-10T12:31:20;97396.25;;;19.17;43.14
80321;BME280;69633;47.066;15.450;2023-05-10T12:33:46;97397.78;;;19.25;43.24
80321;BME280;69633;47.066;15.450;2023-05-10T12:36:14;97393.97;;;19.01;43.63
80321;BME280;69633;47.066;15.450;2023-05-10T12:38:42;97398.59;;;18.94;43.56
80321;BME280;69633;47.066;15.450;2023-05-10T12:41:10;97394.75;;;18.45;44.44
80321;BME280;69633;47.066;15.450;2023-05-10T12:43:37;97397.03;;;18.25;45.25
80321;BME280;69633;47.066;15.450;2023-05-10T12:46:11;97389.00;;;18.43;44.63
80321;BME280;69633;47.066;15.450;2023-05-10T12:48:38;97394.78;;;18.73;44.23
80321;BME280;69633;47.066;15.450;2023-05-10T12:51:06;97403.97;;;18.94;44.20
80321;BME280;69633;47.066;15.450;2023-05-10T12:53:34;97400.13;;;19.05;43.69
80321;BME280;69633;47.066;15.450;2023-05-10T12:56:01;97394.75;;;18.98;43.72
80321;BME280;69633;47.066;15.450;2023-05-10T12:58:27;97403.19;;;19.14;43.68
80321;BME280;69633;47.066;15.450;2023-05-10T13:00:54;97400.09;;;19.16;43.50
80321;BME280;69633;47.066;15.450;2023-05-10T13:03:23;97390.16;;;18.99;43.72
80321;BME280;69633;47.066;15.450;2023-05-10T13:05:49;97390.94;;;18.92;44.08
80321;BME280;69633;47.066;15.450;2023-05-10T13:08:15;97396.66;;;19.05;44.29
80321;BME280;69633;47.066;15.450;2023-05-10T13:10:42;97386.25;;;19.21;43.57
80321;BME280;69633;47.066;15.450;2023-05-10T13:13:07;97382.38;;;19.36;43.34
80321;BME280;69633;47.066;15.450;2023-05-10T13:15:34;97390.84;;;19.38;43.24
80321;BME280;69633;47.066;15.450;2023-05-10T13:18:03;97387.72;;;19.50;43.66
80321;BME280;69633;47.066;15.450;2023-05-10T13:20:35;97382.34;;;19.50;42.38
80321;BME280;69633;47.066;15.450;2023-05-10T13:23:15;97388.50;;;19.40;42.62
80321;BME280;69633;47.066;15.450;2023-05-10T13:25:40;97386.28;;;19.17;43.32